Time;durP1;ratioP1;P1;durP2;ratioP2;P2;SDS_P1;SDS_P2;PMS_P1;PMS_P2;Temp;Humidity;BMP_temperature;BMP_pressure;BME280_temperature;BME280_humidity;BME280_pressure;Samples;Min_cycle;Max_cycle;Signal;HPM_P1;HPM_P2
2022/11/03 00:01:38;;;;;;;29.88;12.15;;;21.80;48.60;;;;;;4929972;29;20039;-75
2022/11/03 00:06:47;;;;;;;26.08;10.65;;;21.80;50.80;;;;;;4914387;29;20435;-76
2022/11/03 00:09:14;;;;;;;24.50;9.85;;;21.80;51.40;;;;;;4915272;29;20076;-76
2022/11/03 00:11:42;;;;;;;22.95;9.65;;;21.90;51.90;;;;;;4916040;29;20126;-75
2022/11/03 00:14:09;;;;;;;21.80;8.90;;;21.90;53.20;;;;;;4915662;29;20035;-76
2022/11/03 00:16:35;;;;;;;22.90;9.73;;;21.90;53.70;;;;;;4916971;29;20024;-76
2022/11/03 00:19:01;;;;;;;17.67;8.85;;;22.00;53.80;;;;;;4916530;29;20032;-76
2022/11/03 00:21:28;;;;;;;18.77;8.57;;;22.00;54.50;;;;;;4917051;29;20402;-76
2022/11/03 00:23:54;;;;;;;18.08;8.73;;;22.00;55.00;;;;;;4911856;29;20036;-76
2022/11/03 00:26:24;;;;;;;19.17;8.55;;;22.00;55.50;;;;;;4896991;29;20024;-77
2022/11/03 00:28:52;;;;;;;19.33;8.50;;;22.00;55.70;;;;;;4896619;29;20032;-77
2022/11/03 00:31:26;;;;;;;20.70;8.68;;;22.00;55.90;;;;;;4896686;29;20037;-77
2022/11/03 00:33:53;;;;;;;27.55;8.85;;;22.00;55.90;;;;;;4896752;29;20039;-77
2022/11/03 00:36:29;;;;;;;16.52;8.27;;;22.00;56.40;;;;;;4896531;29;20088;-76
2022/11/03 00:38:55;;;;;;;17.85;8.07;;;22.00;57.00;;;;;;4896267;29;20509;-76
2022/11/03 00:41:22;;;;;;;20.58;8.27;;;22.10;56.90;;;;;;4896444;29;20044;-77
2022/11/03 00:43:49;;;;;;;19.25;8.77;;;22.10;57.00;;;;;;4897357;29;20061;-77
2022/11/03 00:46:16;;;;;;;16.85;8.32;;;22.10;57.10;;;;;;4896473;29;20041;-76
2022/11/03 00:48:42;;;;;;;18.70;8.18;;;22.10;57.00;;;;;;4896119;29;20509;-77
2022/11/03 00:51:10;;;;;;;13.77;7.82;;;22.00;57.20;;;;;;4896126;29;20028;-77
2022/11/03 00:53:41;;;;;;;18.17;7.97;;;22.00;57.30;;;;;;4896733;29;20040;-76
2022/11/03 00:56:12;;;;;;;17.70;7.82;;;22.10;57.50;;;;;;4896136;29;20495;-76
2022/11/03 00:58:39;;;;;;;16.30;7.85;;;22.00;57.60;;;;;;4896249;29;20509;-77
2022/11/03 01:01:09;;;;;;;16.70;7.32;;;22.00;57.60;;;;;;4895933;29;20563;-77
2022/11/03 01:03:37;;;;;;;18.23;7.68;;;22.10;57.50;;;;;;4895969;29;20384;-77
2022/11/03 01:08:53;;;;;;;17.27;7.90;;;22.10;57.80;;;;;;4915864;29;20028;-76
2022/11/03 01:14:09;;;;;;;14.75;6.90;;;22.10;58.00;;;;;;4915796;29;20035;-76
2022/11/03 01:16:35;;;;;;;17.55;7.88;;;22.10;58.00;;;;;;4915978;29;20036;-76
2022/11/03 01:19:01;;;;;;;18.63;7.47;;;22.10;58.00;;;;;;4915587;29;20039;-76
2022/11/03 01:21:27;;;;;;;15.35;7.40;;;22.10;58.10;;;;;;4914843;29;20106;-77
2022/11/03 01:23:53;;;;;;;17.83;7.40;;;22.10;58.40;;;;;;4914436;29;20398;-77
2022/11/03 01:26:19;;;;;;;14.95;7.35;;;22.00;58.40;;;;;;4915675;29;20034;-76
2022/11/03 01:28:46;;;;;;;19.08;7.80;;;22.10;58.40;;;;;;4914608;29;20028;-76
2022/11/03 01:31:17;;;;;;;17.15;8.05;;;22.10;58.70;;;;;;4915192;29;20044;-76
2022/11/03 01:33:46;;;;;;;13.00;6.63;;;22.00;58.70;;;;;;4915679;29;20115;-76
2022/11/03 01:36:14;;;;;;;16.92;7.30;;;22.00;58.80;;;;;;4914263;29;20035;-76
2022/11/03 01:38:40;;;;;;;13.27;6.63;;;22.00;58.70;;;;;;4914406;29;20032;-76
2022/11/03 01:41:10;;;;;;;16.73;7.32;;;22.00;58.80;;;;;;4915075;29;20444;-76
2022/11/03 01:43:39;;;;;;;14.25;6.63;;;22.00;59.00;;;;;;4915496;29;20035;-76
2022/11/03 01:46:21;;;;;;;14.10;6.78;;;22.00;59.00;;;;;;4915273;29;20038;-76
2022/11/03 01:49:09;;;;;;;16.85;6.95;;;22.00;59.20;;;;;;4914267;29;20035;-76
2022/11/03 01:51:35;;;;;;;16.90;7.15;;;22.10;59.30;;;;;;4914135;29;20107;-76
2022/11/03 01:54:08;;;;;;;16.00;6.78;;;22.10;59.40;;;;;;4935606;29;20023;-76
2022/11/03 01:56:39;;;;;;;13.02;6.43;;;22.10;59.50;;;;;;4953396;28;20477;-76
2022/11/03 01:59:05;;;;;;;12.35;6.68;;;22.10;59.40;;;;;;4953118;28;20066;-75
2022/11/03 02:01:31;;;;;;;13.77;6.55;;;22.00;59.50;;;;;;4952225;29;20063;-76
2022/11/03 02:04:03;;;;;;;14.20;6.28;;;22.00;59.60;;;;;;4952112;29;20062;-75
2022/11/03 02:06:30;;;;;;;11.57;6.10;;;22.10;59.50;;;;;;4953139;28;20035;-76
2022/11/03 02:09:02;;;;;;;14.85;6.60;;;22.00;59.60;;;;;;4953234;28;20457;-76
2022/11/03 02:14:14;;;;;;;14.77;6.85;;;22.00;59.60;;;;;;4951891;29;20043;-76
2022/11/03 02:16:44;;;;;;;11.30;6.07;;;22.00;59.60;;;;;;4953162;28;20497;-76
2022/11/03 02:19:28;;;;;;;15.40;6.03;;;22.00;60.30;;;;;;4952831;29;20560;-76
2022/11/03 02:22:08;;;;;;;12.68;6.28;;;22.10;60.00;;;;;;4953056;28;20038;-76
2022/11/03 02:25:10;;;;;;;11.90;6.03;;;22.10;59.80;;;;;;4953210;28;20035;-76
2022/11/03 02:27:35;;;;;;;15.48;7.00;;;22.00;60.10;;;;;;4953108;29;20031;-75
2022/11/03 02:30:02;;;;;;;12.05;6.40;;;22.10;60.30;;;;;;4952824;28;20058;-76
2022/11/03 02:32:34;;;;;;;9.98;5.55;;;22.00;60.30;;;;;;4955586;28;20401;-76
2022/11/03 02:35:11;;;;;;;13.00;6.18;;;22.00;60.20;;;;;;4955899;29;20023;-76
2022/11/03 02:37:41;;;;;;;11.43;6.10;;;22.00;60.20;;;;;;4956880;28;20086;-76
2022/11/03 02:40:12;;;;;;;12.85;5.82;;;22.00;60.30;;;;;;4956577;28;20027;-76
2022/11/03 02:42:41;;;;;;;13.13;6.13;;;22.10;60.50;;;;;;4956695;28;20107;-76
2022/11/03 02:45:10;;;;;;;12.00;6.35;;;22.00;60.50;;;;;;4956856;28;20031;-76
2022/11/03 02:47:38;;;;;;;11.57;6.03;;;22.00;60.50;;;;;;4956790;28;20027;-76
2022/11/03 02:50:09;;;;;;;11.63;5.57;;;22.00;60.60;;;;;;4955207;29;20031;-76
2022/11/03 02:52:46;;;;;;;12.65;5.95;;;22.00;60.70;;;;;;4956602;28;20032;-76
2022/11/03 02:55:29;;;;;;;11.57;6.13;;;22.00;60.70;;;;;;4955140;29;20500;-76
2022/11/03 02:58:33;;;;;;;9.88;5.47;;;22.00;60.70;;;;;;4956562;28;20533;-76
2022/11/03 03:01:13;;;;;;;12.98;5.88;;;22.10;60.90;;;;;;4956162;28;20038;-76
2022/11/03 03:03:41;;;;;;;;;;;22.10;60.90;;;;;;4956803;28;20039;-76
2022/11/03 03:06:24;;;;;;;12.35;5.32;;;22.00;60.80;;;;;;4956229;28;20383;-76
2022/11/03 03:08:57;;;;;;;11.82;5.40;;;22.00;60.90;;;;;;4955338;29;20028;-76
2022/11/03 03:11:35;;;;;;;13.15;5.80;;;22.10;61.00;;;;;;4955111;29;20098;-76
2022/11/03 03:14:24;;;;;;;12.15;5.30;;;22.00;60.90;;;;;;4956182;28;20082;-76
2022/11/03 03:16:54;;;;;;;12.77;5.95;;;22.00;61.20;;;;;;4956089;28;20043;-76
2022/11/03 03:19:29;;;;;;;11.45;5.75;;;22.10;60.90;;;;;;4956060;28;20035;-76
2022/11/03 03:22:00;;;;;;;11.35;5.07;;;22.00;61.00;;;;;;4956067;28;20031;-76
2022/11/03 03:24:37;;;;;;;12.40;5.90;;;22.10;61.00;;;;;;4954629;29;20565;-76
2022/11/03 03:27:10;;;;;;;12.00;5.38;;;22.00;61.00;;;;;;4954790;29;20501;-76
2022/11/03 03:29:45;;;;;;;10.88;5.05;;;22.10;60.90;;;;;;4955671;28;20058;-76
2022/11/03 03:32:17;;;;;;;13.00;5.70;;;22.00;61.40;;;;;;4955868;28;20118;-76
2022/11/03 03:34:45;;;;;;;11.82;5.20;;;22.10;61.50;;;;;;4955553;28;20066;-76
2022/11/03 03:37:14;;;;;;;12.43;5.32;;;22.00;60.90;;;;;;4955890;28;20031;-75
2022/11/03 03:39:45;;;;;;;12.73;6.00;;;22.00;60.90;;;;;;4955532;28;20393;-76
2022/11/03 03:42:13;;;;;;;11.13;5.18;;;22.00;60.90;;;;;;4955665;28;20039;-76
2022/11/03 03:44:41;;;;;;;11.13;5.55;;;22.10;61.00;;;;;;4954705;28;20801;-76
2022/11/03 03:47:18;;;;;;;12.40;6.00;;;22.10;60.90;;;;;;4954305;29;20393;-76
2022/11/03 03:49:44;;;;;;;11.48;5.20;;;22.10;61.00;;;;;;4955352;28;20027;-76
2022/11/03 03:52:10;;;;;;;11.57;5.60;;;22.10;61.00;;;;;;4955516;28;20127;-76
2022/11/03 03:54:36;;;;;;;10.05;5.30;;;22.00;60.80;;;;;;4955435;28;20038;-76
2022/11/03 03:57:04;;;;;;;10.50;4.75;;;22.10;61.00;;;;;;4955613;28;20457;-76
2022/11/03 03:59:30;;;;;;;10.05;5.07;;;22.00;60.90;;;;;;4955082;28;20115;-76
2022/11/03 04:01:56;;;;;;;9.05;4.97;;;22.10;60.90;;;;;;4955383;29;20122;-76
2022/11/03 04:04:22;;;;;;;9.50;5.05;;;22.00;61.00;;;;;;4955022;28;20156;-76
2022/11/03 04:06:47;;;;;;;12.98;4.50;;;22.00;60.90;;;;;;4955914;28;20530;-76
2022/11/03 04:09:13;;;;;;;11.10;5.05;;;22.00;61.00;;;;;;4955124;28;20027;-76
2022/11/03 04:22:54;;;;;;;10.52;5.30;;;22.10;61.00;;;;;;4954885;29;20031;-76
2022/11/03 04:25:20;;;;;;;12.82;5.15;;;22.10;60.90;;;;;;4954835;28;20440;-76
2022/11/03 04:27:45;;;;;;;11.50;5.03;;;22.00;60.90;;;;;;4954926;28;20028;-76
2022/11/03 04:30:11;;;;;;;7.68;4.25;;;22.00;61.00;;;;;;4954448;28;20035;-76
2022/11/03 04:32:37;;;;;;;11.18;5.00;;;22.10;61.00;;;;;;4954135;29;20390;-76
2022/11/03 04:35:20;;;;;;;10.23;4.75;;;22.00;61.00;;;;;;4954523;28;20035;-76
2022/11/03 04:38:00;;;;;;;12.43;4.90;;;22.10;61.10;;;;;;4954842;28;20101;-76
2022/11/03 04:40:27;;;;;;;12.35;4.85;;;22.10;61.10;;;;;;4954281;28;20030;-76
2022/11/03 04:42:53;;;;;;;9.45;4.75;;;22.10;61.10;;;;;;4954635;28;20031;-76
2022/11/03 04:45:37;;;;;;;11.35;5.10;;;22.10;61.10;;;;;;4954395;29;20034;-76
2022/11/03 04:48:15;;;;;;;10.20;5.10;;;22.10;61.20;;;;;;4954845;28;20024;-76
2022/11/03 04:50:41;;;;;;;10.80;5.00;;;22.10;61.20;;;;;;4954139;28;20477;-77
2022/11/03 04:53:16;;;;;;;13.10;4.93;;;22.00;61.20;;;;;;4954404;28;20032;-76
2022/11/03 04:55:43;;;;;;;11.65;5.03;;;22.00;61.30;;;;;;4954127;28;20128;-76
2022/11/03 04:58:25;;;;;;;10.18;4.80;;;22.00;61.40;;;;;;4953117;29;20053;-76
2022/11/03 05:00:57;;;;;;;12.27;4.93;;;22.00;61.50;;;;;;4953995;28;20027;-75
2022/11/03 05:03:26;;;;;;;10.25;4.85;;;22.00;61.60;;;;;;4946424;28;20383;-75
2022/11/03 05:05:52;;;;;;;8.70;4.97;;;22.00;61.60;;;;;;4923784;29;20032;-75
2022/11/03 05:08:19;;;;;;;10.20;4.45;;;22.00;61.80;;;;;;4933591;29;20035;-75
2022/11/03 05:10:45;;;;;;;12.20;4.80;;;22.00;61.70;;;;;;4934019;29;20032;-75
2022/11/03 05:13:21;;;;;;;15.65;5.22;;;22.00;61.60;;;;;;4934555;29;20039;-75
2022/11/03 05:15:49;;;;;;;9.88;4.93;;;22.00;61.70;;;;;;4934808;29;20039;-75
2022/11/03 05:18:23;;;;;;;11.40;5.28;;;22.00;61.70;;;;;;4933675;29;20091;-76
2022/11/03 05:20:57;;;;;;;12.20;5.30;;;22.00;61.70;;;;;;4934030;29;20097;-76
2022/11/03 05:23:26;;;;;;;11.75;5.63;;;22.00;61.70;;;;;;4933673;29;20474;-76
2022/11/03 05:25:53;;;;;;;12.95;5.28;;;22.00;61.80;;;;;;4933309;29;20118;-75
2022/11/03 05:28:37;;;;;;;13.25;5.10;;;22.00;61.90;;;;;;4934806;29;20034;-75
2022/11/03 05:31:24;;;;;;;13.45;5.30;;;22.00;62.00;;;;;;4933206;29;20028;-76
2022/11/03 05:33:57;;;;;;;11.95;5.22;;;22.00;61.90;;;;;;4934611;29;20047;-75
2022/11/03 05:36:26;;;;;;;11.43;4.80;;;22.00;62.00;;;;;;4934435;29;20024;-76
2022/11/03 05:38:55;;;;;;;13.68;5.35;;;22.00;62.00;;;;;;4934665;29;20034;-75
2022/11/03 05:41:27;;;;;;;8.20;4.15;;;22.00;62.10;;;;;;4934336;29;20067;-76
2022/11/03 05:44:04;;;;;;;11.45;5.22;;;22.00;62.10;;;;;;4917292;29;20040;-76
2022/11/03 05:46:32;;;;;;;9.55;4.88;;;22.00;62.00;;;;;;4934045;29;20027;-75
2022/11/03 05:49:01;;;;;;;10.65;5.07;;;22.00;62.00;;;;;;4932985;29;20410;-76
2022/11/03 05:51:33;;;;;;;9.40;4.97;;;22.00;62.00;;;;;;4933000;29;20176;-76
2022/11/03 05:54:03;;;;;;;9.20;4.68;;;22.00;62.00;;;;;;4934286;29;20038;-76
2022/11/03 05:56:30;;;;;;;;;;;22.00;62.00;;;;;;4934505;29;20059;-76
2022/11/03 05:58:56;;;;;;;14.18;4.90;;;22.00;62.00;;;;;;4934336;29;19917;-75
2022/11/03 06:01:27;;;;;;;11.68;4.78;;;22.00;62.00;;;;;;4933954;29;20488;-76
2022/11/03 06:03:54;;;;;;;8.80;4.07;;;22.00;62.20;;;;;;4934314;29;20474;-76
2022/11/03 06:06:33;;;;;;;9.20;4.72;;;22.00;62.20;;;;;;4932200;29;20122;-76
2022/11/03 06:09:08;;;;;;;8.65;4.35;;;22.00;62.30;;;;;;4934049;29;20036;-76
2022/11/03 06:11:37;;;;;;;11.00;4.93;;;22.00;62.50;;;;;;4934174;29;20102;-75
2022/11/03 06:14:14;;;;;;;14.27;5.10;;;22.00;62.50;;;;;;4934239;29;20032;-75
2022/11/03 06:16:47;;;;;;;10.38;4.68;;;22.00;62.60;;;;;;4934012;29;20772;-75
2022/11/03 06:19:35;;;;;;;8.07;4.10;;;22.00;62.50;;;;;;4932460;29;20118;-76
2022/11/03 06:22:11;;;;;;;12.88;4.88;;;22.00;62.60;;;;;;4940006;29;20452;-76
2022/11/03 06:24:37;;;;;;;14.65;4.80;;;22.00;62.50;;;;;;4946639;29;20493;-76
2022/11/03 06:27:03;;;;;;;12.88;4.55;;;22.00;62.50;;;;;;4913912;29;20039;-76
2022/11/03 06:29:32;;;;;;;11.68;4.68;;;22.00;62.50;;;;;;4913377;29;20493;-76
2022/11/03 06:31:58;;;;;;;9.32;4.32;;;22.00;62.70;;;;;;4933097;29;20050;-76
2022/11/03 06:34:40;;;;;;;11.48;4.32;;;22.00;62.50;;;;;;4945014;28;20046;-76
2022/11/03 06:37:24;;;;;;;12.32;4.47;;;22.00;62.90;;;;;;4951728;29;20491;-76
2022/11/03 06:39:52;;;;;;;12.20;4.93;;;22.00;62.90;;;;;;4952749;29;20090;-76
2022/11/03 06:42:21;;;;;;;17.70;4.90;;;22.00;62.80;;;;;;4940818;29;20039;-76
2022/11/03 06:45:01;;;;;;;11.15;4.68;;;22.00;63.00;;;;;;4950690;29;20038;-76
2022/11/03 06:47:28;;;;;;;11.32;5.10;;;22.00;63.00;;;;;;4953236;28;20477;-76
2022/11/03 06:49:59;;;;;;;11.55;4.40;;;22.00;62.90;;;;;;4951613;29;20032;-76
2022/11/03 06:52:36;;;;;;;18.63;4.80;;;22.00;62.80;;;;;;4939820;28;20024;-76
2022/11/03 06:55:11;;;;;;;13.57;5.03;;;22.00;63.00;;;;;;4920797;29;20118;-77
2022/11/03 06:57:38;;;;;;;19.20;5.05;;;22.00;62.30;;;;;;4941608;29;20036;-76
2022/11/03 07:00:30;;;;;;;27.98;4.93;;;21.70;53.00;;;;;;4933442;29;20394;-76
2022/11/03 07:03:04;;;;;;;11.70;4.72;;;21.10;47.30;;;;;;4934734;29;20039;-76
2022/11/03 07:05:31;;;;;;;17.88;6.88;;;20.80;46.40;;;;;;4943516;29;20035;-76
2022/11/03 07:08:17;;;;;;;17.63;5.95;;;20.50;45.30;;;;;;4951668;29;20035;-76
2022/11/03 07:10:43;;;;;;;19.08;5.63;;;20.20;45.10;;;;;;4952509;28;20027;-75
2022/11/03 07:13:14;;;;;;;16.65;5.07;;;20.20;46.60;;;;;;4952658;28;20405;-76
2022/11/03 07:15:42;;;;;;;13.57;4.45;;;20.40;47.80;;;;;;4951538;29;20098;-76
2022/11/03 07:18:27;;;;;;;14.40;4.40;;;20.60;49.30;;;;;;4952970;28;20082;-81
2022/11/03 07:20:54;;;;;;;23.77;5.32;;;20.80;50.50;;;;;;4955469;28;20035;-75
2022/11/03 07:23:27;;;;;;;23.42;5.88;;;21.10;50.80;;;;;;4938682;29;20031;-76
2022/11/03 07:25:57;;;;;;;29.40;11.05;;;21.10;50.80;;;;;;4955864;28;20043;-76
2022/11/03 07:28:33;;;;;;;33.47;19.52;;;20.90;46.90;;;;;;4938140;29;20031;-77
2022/11/03 07:31:01;;;;;;;25.48;14.93;;;20.70;46.20;;;;;;4933776;29;20031;-76
2022/11/03 07:33:30;;;;;;;19.15;9.80;;;20.50;47.90;;;;;;4943158;29;20067;-76
2022/11/03 07:35:59;;;;;;;15.10;6.57;;;20.40;46.80;;;;;;4953687;29;20497;-77
2022/11/03 07:38:26;;;;;;;14.93;5.95;;;20.30;46.90;;;;;;4945502;28;20046;-76
2022/11/03 07:40:55;;;;;;;15.20;4.45;;;20.30;46.60;;;;;;4946098;29;20085;-77
2022/11/03 07:43:29;;;;;;;15.25;4.80;;;20.30;44.60;;;;;;4949224;29;20434;-77
2022/11/03 07:45:57;;;;;;;21.27;5.18;;;20.20;45.70;;;;;;4933668;28;20020;-75
2022/11/03 17:28:17;;;;;;;11.35;5.80;;;21.30;62.70;;;;;;5123086;27;20391;-75
2022/11/03 17:30:43;;;;;;;11.90;5.40;;;21.40;62.50;;;;;;5102931;28;20028;-76
2022/11/03 17:33:15;;;;;;;9.48;5.35;;;21.40;62.40;;;;;;5109127;28;20072;-74
2022/11/03 17:35:44;;;;;;;12.35;6.53;;;21.50;62.30;;;;;;5107726;28;20481;-75
2022/11/03 17:38:15;;;;;;;12.93;5.78;;;21.40;61.60;;;;;;5110981;28;20077;-75
2022/11/03 17:40:43;;;;;;;14.45;5.97;;;21.40;61.80;;;;;;5108964;28;20020;-75
2022/11/03 17:43:21;;;;;;;11.68;6.20;;;21.40;61.40;;;;;;5108918;28;20024;-75
2022/11/03 17:45:47;;;;;;;11.25;5.65;;;21.40;61.60;;;;;;5106823;28;20036;-75
2022/11/03 17:48:13;;;;;;;13.55;5.72;;;21.40;62.00;;;;;;5108442;28;20027;-75
2022/11/03 17:50:49;;;;;;;14.00;6.20;;;21.40;62.10;;;;;;5109018;28;20132;-75
2022/11/03 17:53:27;;;;;;;12.55;6.28;;;21.40;62.00;;;;;;5103833;28;20066;-75
2022/11/03 17:55:54;;;;;;;13.23;6.20;;;21.40;62.20;;;;;;5098710;28;20020;-75
2022/11/03 17:58:27;;;;;;;10.10;6.00;;;21.50;62.50;;;;;;5107954;28;20389;-75
2022/11/03 18:00:53;;;;;;;13.32;6.00;;;21.50;62.50;;;;;;5108780;28;20020;-76
2022/11/03 18:03:19;;;;;;;20.52;6.07;;;21.60;62.20;;;;;;5107771;28;20471;-75
2022/11/03 18:05:44;;;;;;;18.45;9.27;;;21.60;62.10;;;;;;5100992;28;20107;-76
2022/11/03 18:08:11;;;;;;;19.70;10.10;;;21.60;62.50;;;;;;5099908;28;20087;-76
2022/11/03 18:10:40;;;;;;;17.50;10.23;;;21.60;62.30;;;;;;5096721;28;20077;-75
2022/11/03 18:13:26;;;;;;;20.02;11.55;;;21.60;62.80;;;;;;5091609;28;20097;-74
2022/11/03 18:16:00;;;;;;;19.67;10.60;;;21.60;62.80;;;;;;5087484;28;20396;-76
2022/11/03 18:18:29;;;;;;;17.52;10.75;;;21.60;62.40;;;;;;5101613;28;20077;-76
2022/11/03 18:20:56;;;;;;;;;;;21.60;62.50;;;;;;5106163;28;20495;-76
2022/11/03 18:23:33;;;;;;;19.02;10.95;;;21.60;62.50;;;;;;5104102;28;20002;-77
2022/11/03 18:26:01;;;;;;;24.48;10.75;;;21.60;62.60;;;;;;5100912;28;20027;-76
2022/11/03 18:28:27;;;;;;;17.75;10.98;;;21.50;62.50;;;;;;5094304;28;20056;-76
2022/11/03 18:30:55;;;;;;;16.35;10.82;;;21.50;62.70;;;;;;5091554;28;20028;-76
2022/11/03 18:33:24;;;;;;;16.63;10.55;;;21.50;62.80;;;;;;5091281;28;20028;-76
2022/11/03 18:35:52;;;;;;;16.52;10.18;;;21.50;62.90;;;;;;5087920;28;20036;-76
2022/11/03 18:38:20;;;;;;;17.58;10.25;;;21.50;62.90;;;;;;5091020;28;20170;-76
2022/11/03 18:40:46;;;;;;;20.08;10.77;;;21.50;62.90;;;;;;5092698;28;20024;-76
2022/11/03 18:43:16;;;;;;;18.58;9.52;;;21.50;62.90;;;;;;5087300;28;20040;-76
2022/11/03 18:45:42;;;;;;;17.02;8.85;;;21.50;63.00;;;;;;5089138;28;20024;-76
2022/11/03 18:48:08;;;;;;;18.38;10.10;;;21.50;63.00;;;;;;5093597;28;20397;-74
2022/11/03 18:50:34;;;;;;;26.15;9.35;;;21.60;62.70;;;;;;5092733;28;20028;-74
2022/11/03 18:53:00;;;;;;;16.58;7.18;;;21.40;59.50;;;;;;5094090;28;20035;-73
2022/11/03 18:55:26;;;;;;;23.58;6.78;;;21.30;54.40;;;;;;5093954;28;20024;-73
2022/11/03 18:57:52;;;;;;;16.15;6.40;;;21.20;52.60;;;;;;5093485;28;20032;-74
2022/11/03 19:00:21;;;;;;;16.85;6.05;;;21.10;53.50;;;;;;5092603;28;20117;-73
2022/11/03 19:02:49;;;;;;;14.05;5.57;;;21.10;56.60;;;;;;5092882;28;20067;-75
2022/11/03 19:05:15;;;;;;;18.55;5.50;;;21.00;54.20;;;;;;5075773;28;20554;-75
2022/11/03 19:07:44;;;;;;;15.80;6.07;;;20.90;55.30;;;;;;5093404;28;20034;-73
2022/11/03 19:10:13;;;;;;;13.98;6.18;;;20.80;56.20;;;;;;5093626;28;20024;-76
2022/11/03 19:12:42;;;;;;;16.40;5.40;;;20.70;56.10;;;;;;5092591;28;20493;-76
2022/11/03 19:15:23;;;;;;;23.75;13.25;;;20.60;56.00;;;;;;5093540;28;20028;-76
2022/11/03 19:17:55;;;;;;;35.25;22.83;;;20.60;54.00;;;;;;5075076;28;20032;-76
2022/11/03 19:20:22;;;;;;;29.98;17.63;;;20.50;52.80;;;;;;5092225;28;20471;-76
2022/11/03 19:22:48;;;;;;;24.55;12.63;;;20.50;51.20;;;;;;5092493;28;20031;-79
2022/11/03 19:25:14;;;;;;;22.25;10.27;;;20.50;50.10;;;;;;5093537;28;20469;-76
2022/11/03 19:27:44;;;;;;;21.45;8.70;;;20.40;49.60;;;;;;5089626;28;20039;-72
2022/11/03 19:30:13;;;;;;;18.88;8.82;;;20.50;50.40;;;;;;5090583;28;20074;-72
2022/11/03 23:10:46;;;;;;;12.45;6.28;;;21.10;58.50;;;;;;5140924;27;20385;-73
2022/11/03 23:13:12;;;;;;;12.05;6.15;;;21.20;59.20;;;;;;5137619;27;20456;-74
2022/11/03 23:15:42;;;;;;;10.07;5.47;;;21.30;59.20;;;;;;5099340;22;20123;-73
2022/11/03 23:21:07;;;;;;;12.32;5.85;;;21.30;59.00;;;;;;5051074;28;19909;-74
2022/11/03 23:26:25;;;;;;;11.77;5.70;;;21.30;59.20;;;;;;5063711;28;20112;-74
2022/11/03 23:28:51;;;;;;;11.55;6.03;;;21.30;59.40;;;;;;5059742;28;20024;-74
2022/11/03 23:31:17;;;;;;;16.33;5.80;;;21.40;59.60;;;;;;5046451;28;20024;-74
2022/11/03 23:33:43;;;;;;;12.95;6.25;;;21.30;60.00;;;;;;5056668;28;20111;-75
2022/11/03 23:36:13;;;;;;;12.23;5.65;;;21.40;60.30;;;;;;5073405;28;20040;-74
2022/11/03 23:38:40;;;;;;;12.10;5.95;;;21.30;59.60;;;;;;5059620;28;20063;-75
2022/11/03 23:41:08;;;;;;;10.95;5.60;;;21.30;59.70;;;;;;5042680;28;20021;-74
2022/11/03 23:43:34;;;;;;;12.05;5.93;;;21.30;59.70;;;;;;5031163;28;20029;-75
2022/11/03 23:48:45;;;;;;;12.45;6.03;;;21.30;59.70;;;;;;5055879;28;20094;-74
2022/11/03 23:51:13;;;;;;;11.15;5.57;;;21.40;59.70;;;;;;5060163;28;20068;-74
2022/11/03 23:53:38;;;;;;;11.30;6.03;;;21.40;59.80;;;;;;5049459;28;20085;-77
2022/11/03 23:58:49;;;;;;;18.08;6.00;;;21.40;59.80;;;;;;5045831;28;20037;-75
